Time;durP1;ratioP1;P1;durP2;ratioP2;P2;SDS_P1;SDS_P2;PMS_P1;PMS_P2;Temp;Humidity;BMP_temperature;BMP_pressure;BME280_temperature;BME280_humidity;BME280_pressure;Samples;Min_cycle;Max_cycle;Signal;HPM_P1;HPM_P2
2023/05/18 00:00:34;;;;;;;7.40;2.70;;;4.40;19.50;;;;;;6125302;23;20162;-78
2023/05/18 00:03:02;;;;;;;9.73;3.17;;;4.30;46.20;;;;;;6125082;23;20266;-80
2023/05/18 00:05:32;;;;;;;6.10;3.00;;;4.30;52.40;;;;;;6125356;23;20156;-80
2023/05/18 00:07:58;;;;;;;7.07;3.17;;;4.20;69.20;;;;;;6125497;23;20164;-81
2023/05/18 00:10:24;;;;;;;8.57;3.10;;;4.20;95.50;;;;;;6125019;23;20190;-84
2023/05/18 00:12:50;;;;;;;6.83;3.20;;;4.10;91.90;;;;;;6151489;23;20541;-78
2023/05/18 00:15:15;;;;;;;7.10;2.60;;;4.10;79.20;;;;;;6125187;23;20789;-79
2023/05/18 00:17:41;;;;;;;6.47;2.80;;;4.10;86.40;;;;;;6125910;23;20163;-79
2023/05/18 00:20:08;;;;;;;4.23;2.50;;;4.10;97.30;;;;;;6125538;23;20187;-80
2023/05/18 00:22:34;;;;;;;5.53;2.73;;;4.00;99.90;;;;;;6150895;23;20175;-78
2023/05/18 00:25:00;;;;;;;8.63;3.07;;;4.00;92.10;;;;;;6151599;23;20179;-78
2023/05/18 00:27:25;;;;;;;5.53;2.60;;;4.00;99.90;;;;;;6124895;23;20184;-80
2023/05/18 00:29:51;;;;;;;6.10;2.97;;;4.00;95.10;;;;;;6125229;23;20223;-80
2023/05/18 00:32:17;;;;;;;6.33;2.60;;;4.00;99.90;;;;;;6124971;23;20247;-84
2023/05/18 00:34:42;;;;;;;5.43;2.43;;;4.10;99.90;;;;;;6150713;23;20168;-78
2023/05/18 00:37:08;;;;;;;6.80;2.67;;;4.10;99.90;;;;;;6151227;23;20175;-79
2023/05/18 00:39:33;;;;;;;6.90;3.30;;;4.10;96.10;;;;;;6151394;23;20171;-79
2023/05/18 00:41:59;;;;;;;6.60;2.93;;;4.10;99.90;;;;;;6124779;23;20678;-82
2023/05/18 00:44:24;;;;;;;5.73;2.87;;;4.00;67.90;;;;;;6124712;23;20156;-78
2023/05/18 00:46:50;;;;;;;6.37;2.83;;;3.90;70.70;;;;;;6124765;23;20239;-79
2023/05/18 00:49:17;;;;;;;5.37;2.87;;;3.80;71.40;;;;;;6151212;23;20683;-80
2023/05/18 00:51:43;;;;;;;7.37;2.57;;;3.70;89.90;;;;;;6124557;23;20167;-82
2023/05/18 00:54:09;;;;;;;8.10;2.90;;;3.70;99.90;;;;;;6124993;23;20195;-79
2023/05/18 00:56:40;;;;;;;5.70;3.10;;;3.80;99.90;;;;;;6125493;23;20159;-77
2023/05/18 00:59:08;;;;;;;7.17;3.37;;;3.80;99.90;;;;;;6127179;23;20644;-81
2023/05/18 01:01:34;;;;;;;7.67;2.93;;;3.70;99.90;;;;;;6153321;23;20187;-83
2023/05/18 01:04:01;;;;;;;5.13;2.90;;;3.60;99.90;;;;;;6127146;23;20489;-83
2023/05/18 01:06:31;;;;;;;6.97;3.10;;;3.60;99.90;;;;;;6153470;23;20151;-81
2023/05/18 01:09:06;;;;;;;5.33;2.60;;;3.50;99.90;;;;;;6126988;23;20184;-81
2023/05/18 01:11:49;;;;;;;5.63;2.97;;;3.40;99.90;;;;;;6126944;23;20155;-77
2023/05/18 01:14:36;;;;;;;5.17;3.00;;;3.20;98.80;;;;;;6127484;23;20156;-81
2023/05/18 01:17:32;;;;;;;5.17;2.73;;;3.00;99.60;;;;;;6127243;23;20194;-80
2023/05/18 01:20:17;;;;;;;4.17;2.60;;;3.00;99.90;;;;;;6127122;23;20269;-79
2023/05/18 01:23:04;;;;;;;5.97;2.70;;;3.00;99.90;;;;;;6126683;23;20190;-77
2023/05/18 01:25:39;;;;;;;9.50;3.20;;;2.90;99.90;;;;;;6126720;23;20148;-79
2023/05/18 01:28:08;;;;;;;10.07;3.07;;;3.10;99.90;;;;;;6152855;23;20148;-81
2023/05/18 01:30:40;;;;;;;5.30;3.27;;;3.20;99.90;;;;;;6126288;23;20163;-78
2023/05/18 01:33:09;;;;;;;6.10;2.80;;;3.20;99.90;;;;;;6152544;23;20140;-81
2023/05/18 01:35:36;;;;;;;7.53;3.50;;;3.30;99.90;;;;;;6152347;23;20189;-82
2023/05/18 01:38:02;;;;;;;7.63;3.40;;;3.40;99.90;;;;;;6126308;23;20180;-79
2023/05/18 01:40:35;;;;;;;8.10;3.47;;;3.40;99.90;;;;;;6126756;23;20206;-78
2023/05/18 01:43:10;;;;;;;8.87;3.47;;;3.50;99.90;;;;;;6126580;23;20214;-78
2023/05/18 01:45:41;;;;;;;6.57;3.30;;;3.50;99.90;;;;;;6126638;23;20202;-79
2023/05/18 01:48:07;;;;;;;8.30;3.80;;;3.40;99.90;;;;;;6152728;23;20611;-82
2023/05/18 01:50:38;;;;;;;8.47;3.33;;;3.20;99.90;;;;;;6126089;23;20156;-79
2023/05/18 01:53:19;;;;;;;9.63;4.70;;;3.20;99.90;;;;;;6126222;23;20191;-80
2023/05/18 01:55:46;;;;;;;10.97;6.23;;;3.20;99.90;;;;;;6126419;23;20557;-78
2023/05/18 01:58:13;;;;;;;11.33;3.93;;;3.20;1.00;;;;;;6152439;23;20151;-79
2023/05/18 02:00:39;;;;;;;5.60;3.30;;;3.40;1.00;;;;;;6126515;23;20167;-82
2023/05/18 02:03:04;;;;;;;12.77;3.67;;;3.20;99.90;;;;;;6125581;23;20193;-81
2023/05/18 02:05:30;;;;;;;6.13;3.20;;;3.20;99.90;;;;;;6126277;23;20511;-80
2023/05/18 02:07:56;;;;;;;8.50;3.60;;;4.20;99.90;;;;;;6125718;23;20160;-78
2023/05/18 02:10:22;;;;;;;7.70;3.67;;;3.10;99.90;;;;;;6151926;23;20258;-81
2023/05/18 02:12:51;;;;;;;5.57;3.30;;;3.00;99.90;;;;;;6151973;23;20194;-80
2023/05/18 02:15:17;;;;;;;5.93;3.10;;;2.90;99.90;;;;;;6125500;23;20190;-81
2023/05/18 02:17:42;;;;;;;5.17;2.73;;;2.80;99.90;;;;;;6151546;23;20156;-79
2023/05/18 02:20:08;;;;;;;5.53;2.77;;;2.80;99.90;;;;;;6152013;23;20187;-78
2023/05/18 02:22:35;;;;;;;5.87;2.87;;;2.60;99.90;;;;;;6125457;23;20192;-80
2023/05/18 02:25:01;;;;;;;5.73;2.93;;;2.60;99.90;;;;;;6152216;23;20152;-82
2023/05/18 02:27:27;;;;;;;7.20;3.37;;;2.50;99.90;;;;;;6151998;23;20283;-80
2023/05/18 02:29:53;;;;;;;4.97;2.80;;;2.50;99.90;;;;;;6152244;23;20187;-81
2023/05/18 02:32:19;;;;;;;5.63;3.10;;;1.90;99.90;;;;;;6126346;23;20580;-78
2023/05/18 02:34:45;;;;;;;6.20;3.47;;;2.40;99.90;;;;;;6152468;23;20234;-83
2023/05/18 02:37:12;;;;;;;8.43;2.93;;;2.30;1.00;;;;;;6152315;23;20210;-77
2023/05/18 02:39:38;;;;;;;6.00;3.10;;;2.30;1.00;;;;;;6126278;23;20628;-79
2023/05/18 02:42:03;;;;;;;7.73;3.27;;;2.30;99.90;;;;;;6152897;23;20178;-79
2023/05/18 02:44:29;;;;;;;7.10;3.13;;;2.40;1.00;;;;;;6126109;23;20159;-81
2023/05/18 02:46:54;;;;;;;7.70;2.93;;;2.30;1.00;;;;;;6125731;23;20216;-81
2023/05/18 02:49:20;;;;;;;6.70;3.00;;;2.30;1.00;;;;;;6126005;23;20175;-78
2023/05/18 02:51:45;;;;;;;5.37;3.03;;;2.40;1.00;;;;;;6126506;23;20604;-82
2023/05/18 02:54:11;;;;;;;5.77;3.03;;;2.40;1.00;;;;;;6152344;23;20164;-77
2023/05/18 02:56:37;;;;;;;5.97;3.30;;;2.30;1.00;;;;;;6126774;23;20167;-82
2023/05/18 02:59:03;;;;;;;6.53;2.97;;;2.20;99.90;;;;;;6125909;23;20183;-79
2023/05/18 03:01:29;;;;;;;3.80;2.47;;;2.10;99.90;;;;;;6126496;23;20250;-79
2023/05/18 03:03:58;;;;;;;5.97;3.13;;;2.00;99.90;;;;;;6152439;23;20537;-79
2023/05/18 03:06:25;;;;;;;6.03;3.30;;;2.00;99.90;;;;;;6126417;23;20160;-82
2023/05/18 03:08:53;;;;;;;8.07;3.23;;;2.00;1.00;;;;;;6126002;23;20259;-80
2023/05/18 03:11:20;;;;;;;5.43;3.00;;;1.90;99.90;;;;;;6152695;23;20249;-77
2023/05/18 03:13:46;;;;;;;4.97;2.50;;;1.80;99.90;;;;;;6125843;23;20245;-79
2023/05/18 03:16:12;;;;;;;6.67;3.07;;;1.80;1.00;;;;;;6125766;23;20549;-81
2023/05/18 03:18:38;;;;;;;5.87;2.93;;;1.80;1.00;;;;;;6126086;23;20206;-83
2023/05/18 03:21:03;;;;;;;6.43;3.10;;;1.90;1.00;;;;;;6125334;23;20160;-78
2023/05/18 03:23:29;;;;;;;5.33;3.30;;;2.10;1.00;;;;;;6152128;23;20187;-80
2023/05/18 03:25:55;;;;;;;5.33;2.90;;;2.00;1.00;;;;;;6126290;23;20195;-80
2023/05/18 03:28:21;;;;;;;6.10;3.33;;;2.00;1.00;;;;;;6124956;23;20677;-83
2023/05/18 03:30:47;;;;;;;5.63;3.00;;;2.00;1.00;;;;;;6151606;23;20144;-79
2023/05/18 03:33:12;;;;;;;8.53;3.97;;;1.90;1.00;;;;;;6125982;23;20164;-80
2023/05/18 03:35:41;;;;;;;6.90;3.17;;;1.90;1.00;;;;;;6152019;23;20169;-81
2023/05/18 03:38:07;;;;;;;5.63;2.80;;;1.90;99.90;;;;;;6151634;23;20167;-83
2023/05/18 03:40:32;;;;;;;3.83;3.07;;;1.90;1.00;;;;;;6126096;23;20202;-83
2023/05/18 03:42:58;;;;;;;8.73;4.07;;;1.80;99.90;;;;;;6151328;23;20171;-79
2023/05/18 03:45:23;;;;;;;7.43;3.20;;;1.90;1.00;;;;;;6125490;23;20214;-78
2023/05/18 03:47:50;;;;;;;5.87;3.20;;;1.80;1.00;;;;;;6125994;23;20202;-80
2023/05/18 03:50:15;;;;;;;6.77;3.43;;;1.80;1.00;;;;;;6151542;23;20171;-81
2023/05/18 03:52:43;;;;;;;5.40;3.33;;;1.80;1.00;;;;;;6151671;23;20156;-78
2023/05/18 03:55:09;;;;;;;9.83;3.33;;;1.70;1.00;;;;;;6151423;23;20159;-78
2023/05/18 03:57:34;;;;;;;5.77;2.93;;;1.70;1.00;;;;;;6151600;23;20539;-82
2023/05/18 04:00:06;;;;;;;6.80;3.10;;;1.80;1.00;;;;;;6125324;23;20191;-80
2023/05/18 04:02:32;;;;;;;6.73;3.23;;;1.90;1.00;;;;;;6125109;23;20203;-83
2023/05/18 04:04:57;;;;;;;7.17;3.33;;;1.90;1.00;;;;;;6125104;23;20600;-78
2023/05/18 04:07:23;;;;;;;5.43;3.17;;;1.90;1.00;;;;;;6151341;23;20473;-79
2023/05/18 04:09:54;;;;;;;7.50;3.57;;;2.00;1.00;;;;;;6125058;23;20180;-84
2023/05/18 04:12:20;;;;;;;6.40;3.47;;;2.00;1.00;;;;;;6124813;23;20156;-80
2023/05/18 04:14:48;;;;;;;6.87;2.73;;;2.10;99.90;;;;;;6124285;23;20167;-78
2023/05/18 04:17:21;;;;;;;7.50;3.10;;;2.20;99.90;;;;;;6150722;23;20215;-80
2023/05/18 04:19:50;;;;;;;5.60;2.77;;;2.40;99.90;;;;;;6124830;23;20741;-83
2023/05/18 04:22:15;;;;;;;6.30;3.07;;;2.50;99.90;;;;;;6124420;23;20271;-83
2023/05/18 04:24:41;;;;;;;5.13;3.17;;;2.60;99.90;;;;;;6124623;23;20191;-80
2023/05/18 04:27:08;;;;;;;7.53;4.30;;;2.60;99.90;;;;;;6150792;23;20156;-81
2023/05/18 04:29:33;;;;;;;6.43;3.40;;;2.70;99.90;;;;;;6150957;23;20174;-79
2023/05/18 04:31:59;;;;;;;6.00;3.20;;;2.80;99.90;;;;;;6125493;23;20167;-78
2023/05/18 04:34:30;;;;;;;8.67;3.30;;;3.00;99.90;;;;;;6152754;23;20156;-82
2023/05/18 04:36:58;;;;;;;6.27;3.70;;;3.10;99.90;;;;;;6126725;23;20179;-82
2023/05/18 04:39:26;;;;;;;7.40;3.73;;;3.20;99.90;;;;;;6126641;23;20206;-80
2023/05/18 04:41:57;;;;;;;4.90;3.13;;;3.30;99.90;;;;;;6126850;23;20190;-78
2023/05/18 04:44:24;;;;;;;5.87;3.30;;;3.50;99.90;;;;;;6127257;23;20190;-81
2023/05/18 04:46:51;;;;;;;4.33;2.70;;;3.80;99.90;;;;;;6127316;23;20168;-80
2023/05/18 04:49:20;;;;;;;4.60;2.60;;;3.90;28.60;;;;;;6153154;23;20230;-81
2023/05/18 04:51:48;;;;;;;6.33;3.40;;;4.00;1.00;;;;;;6126680;23;20214;-78
2023/05/18 04:54:14;;;;;;;7.53;2.77;;;4.20;1.00;;;;;;6153102;23;20152;-76
2023/05/18 04:56:40;;;;;;;4.60;2.80;;;4.70;1.00;;;;;;6124091;23;20168;-78
2023/05/18 04:59:08;;;;;;;4.57;2.57;;;5.30;1.00;;;;;;6124137;23;20519;-82
2023/05/18 05:01:33;;;;;;;4.17;2.63;;;5.80;1.00;;;;;;6123628;23;20167;-81
2023/05/18 05:03:59;;;;;;;7.47;3.13;;;6.30;1.00;;;;;;6123841;23;20222;-79
2023/05/18 05:06:24;;;;;;;5.17;2.70;;;6.30;1.00;;;;;;6149407;23;20151;-78
2023/05/18 05:08:50;;;;;;;6.07;2.93;;;6.30;1.00;;;;;;6124539;23;20258;-82
2023/05/18 05:11:16;;;;;;;5.30;2.77;;;6.50;1.00;;;;;;6124982;23;20170;-80
2023/05/18 05:13:41;;;;;;;5.50;2.40;;;7.00;1.00;;;;;;6124566;23;20191;-79
2023/05/18 05:16:07;;;;;;;6.87;2.80;;;7.70;1.00;;;;;;6124441;23;20160;-82
2023/05/18 05:18:33;;;;;;;4.10;2.00;;;8.70;1.00;;;;;;6150599;23;20199;-79
2023/05/18 05:20:58;;;;;;;8.20;2.70;;;9.50;1.00;;;;;;6124314;23;20462;-81
2023/05/18 05:23:24;;;;;;;4.73;2.20;;;10.30;1.00;;;;;;6150307;23;20180;-81
2023/05/18 05:25:49;;;;;;;5.97;2.30;;;10.70;1.00;;;;;;6150858;23;20175;-81
2023/05/18 05:28:15;;;;;;;4.43;2.33;;;10.90;1.00;;;;;;6150785;23;20228;-78
2023/05/18 05:30:40;;;;;;;4.70;2.57;;;11.10;1.00;;;;;;6124080;23;20170;-81
2023/05/18 05:33:06;;;;;;;6.17;2.60;;;10.90;1.00;;;;;;6124075;23;20168;-80
2023/05/18 05:35:32;;;;;;;7.57;3.23;;;10.80;1.00;;;;;;6124068;23;20163;-84
2023/05/18 05:37:57;;;;;;;7.17;2.90;;;10.70;1.00;;;;;;6123908;23;20663;-79
2023/05/18 05:40:24;;;;;;;4.47;2.60;;;11.00;1.00;;;;;;6124529;23;20231;-83
2023/05/18 05:42:49;;;;;;;5.65;2.50;;;11.70;1.00;;;;;;6123185;23;20194;-79
2023/05/18 05:45:15;;;;;;;5.40;3.22;;;13.20;1.00;;;;;;6149454;23;20152;-78
2023/05/18 05:47:40;;;;;;;4.72;2.53;;;13.80;1.00;;;;;;6123099;23;20167;-80
2023/05/18 05:50:06;;;;;;;5.47;2.70;;;13.80;1.00;;;;;;6149311;23;20179;-79
2023/05/18 05:52:32;;;;;;;5.22;2.90;;;14.40;1.00;;;;;;6148814;23;20174;-81
2023/05/18 05:54:57;;;;;;;5.72;2.80;;;14.10;1.00;;;;;;6123682;23;20604;-81
2023/05/18 05:57:23;;;;;;;6.88;2.55;;;14.20;1.00;;;;;;6149670;23;20522;-82
2023/05/18 05:59:49;;;;;;;7.80;3.08;;;14.20;1.00;;;;;;6123568;23;20179;-83
2023/05/18 06:02:15;;;;;;;6.63;2.45;;;14.50;1.00;;;;;;6123491;23;20207;-82
2023/05/18 06:04:40;;;;;;;6.93;2.70;;;14.40;1.00;;;;;;6123518;23;20164;-78
2023/05/18 06:07:06;;;;;;;7.65;2.75;;;14.70;1.00;;;;;;6123260;23;20157;-79
2023/05/18 06:09:31;;;;;;;6.72;2.50;;;15.10;1.00;;;;;;6123607;23;20180;-78
2023/05/18 06:11:57;;;;;;;6.60;2.85;;;14.10;1.00;;;;;;6149081;23;20156;-82
2023/05/18 06:14:22;;;;;;;4.55;2.38;;;14.00;1.00;;;;;;6149134;23;20152;-80
2023/05/18 06:16:48;;;;;;;4.90;2.58;;;14.10;1.00;;;;;;6148965;23;20156;-82
2023/05/18 06:19:14;;;;;;;4.00;2.40;;;13.70;1.00;;;;;;6149365;23;20628;-81
2023/05/18 06:21:39;;;;;;;6.35;2.53;;;13.30;1.00;;;;;;6123108;23;20225;-82
2023/05/18 06:24:05;;;;;;;4.05;2.10;;;13.50;1.00;;;;;;6149523;23;20230;-80
2023/05/18 06:26:31;;;;;;;6.90;2.70;;;14.30;1.00;;;;;;6122744;23;20164;-78
2023/05/18 06:28:57;;;;;;;5.25;2.50;;;14.60;1.00;;;;;;6149015;23;20576;-82
2023/05/18 06:31:22;;;;;;;4.57;2.40;;;14.30;1.00;;;;;;6122779;23;20478;-79
2023/05/18 06:33:48;;;;;;;5.28;2.88;;;14.40;1.00;;;;;;6149574;23;20299;-81
2023/05/18 06:36:15;;;;;;;7.38;2.70;;;14.90;1.00;;;;;;6123136;23;20167;-79
2023/05/18 06:38:40;;;;;;;4.88;2.40;;;15.30;1.00;;;;;;6149034;23;20183;-83
2023/05/18 06:41:06;;;;;;;5.28;2.40;;;16.40;1.00;;;;;;6123486;23;20694;-79
2023/05/18 06:43:31;;;;;;;5.03;2.28;;;16.00;1.00;;;;;;6122718;23;20183;-84
2023/05/18 06:45:57;;;;;;;15.02;8.38;;;16.80;1.00;;;;;;6122881;23;20171;-79
2023/05/18 06:48:26;;;;;;;4.20;2.60;;;16.20;1.00;;;;;;6123363;23;20218;-81
2023/05/18 06:50:52;;;;;;;4.38;2.22;;;16.70;1.00;;;;;;6122636;23;20166;-82
2023/05/18 06:53:18;;;;;;;6.43;2.40;;;17.30;1.00;;;;;;6122137;23;20707;-78
2023/05/18 06:55:43;;;;;;;11.40;7.63;;;18.30;1.00;;;;;;6148271;23;20247;-81
2023/05/18 06:58:09;;;;;;;9.90;4.60;;;18.80;1.00;;;;;;6122043;23;20174;-81
2023/05/18 07:00:34;;;;;;;9.13;4.32;;;19.30;1.00;;;;;;6124021;23;20163;-79
2023/05/18 07:03:00;;;;;;;8.00;3.28;;;19.50;1.00;;;;;;6150591;23;20176;-79
2023/05/18 07:05:26;;;;;;;7.32;3.03;;;18.90;1.00;;;;;;6150630;23;20155;-82
2023/05/18 07:07:52;;;;;;;6.43;2.78;;;18.70;1.00;;;;;;6124614;23;20180;-79
2023/05/18 07:10:18;;;;;;;4.95;2.30;;;18.10;1.00;;;;;;6125551;23;20211;-80
2023/05/18 07:12:43;;;;;;;5.85;1.98;;;17.90;1.00;;;;;;6124123;23;20163;-81
2023/05/18 07:15:10;;;;;;;4.38;2.42;;;18.40;1.00;;;;;;6148788;23;20231;-78
2023/05/18 07:17:37;;;;;;;6.43;1.90;;;17.50;1.00;;;;;;6120220;23;20178;-84
2023/05/18 07:20:05;;;;;;;5.75;2.00;;;17.20;1.00;;;;;;6146678;23;20570;-78
2023/05/18 07:22:31;;;;;;;5.68;2.30;;;16.10;1.00;;;;;;6120056;23;20184;-79
2023/05/18 07:24:57;;;;;;;4.95;1.88;;;15.00;1.00;;;;;;6146453;23;20159;-83
2023/05/18 07:27:23;;;;;;;5.03;2.05;;;14.50;1.00;;;;;;6146585;23;20222;-83
2023/05/18 07:29:49;;;;;;;4.88;2.15;;;14.20;1.00;;;;;;6148681;23;20676;-82
2023/05/18 07:32:15;;;;;;;4.93;1.88;;;13.60;1.00;;;;;;6149143;23;20182;-82
2023/05/18 07:34:42;;;;;;;5.28;2.38;;;13.10;1.00;;;;;;6122571;23;20171;-82
2023/05/18 07:37:08;;;;;;;5.00;2.63;;;13.30;1.00;;;;;;6122994;23;20218;-81
2023/05/18 07:39:34;;;;;;;6.50;2.20;;;13.40;1.00;;;;;;6123028;23;20569;-81
2023/05/18 07:42:01;;;;;;;6.65;1.80;;;13.20;1.00;;;;;;6149253;23;20234;-79
2023/05/18 07:44:27;;;;;;;6.10;2.30;;;13.20;1.00;;;;;;6122924;23;20179;-82
2023/05/18 07:46:52;;;;;;;4.13;1.73;;;13.10;1.00;;;;;;6123431;23;20159;-78
2023/05/18 07:49:18;;;;;;;5.75;2.05;;;12.90;1.00;;;;;;6149026;23;20258;-84
2023/05/18 07:51:44;;;;;;;4.75;1.90;;;13.00;1.00;;;;;;6121828;23;20159;-79
2023/05/18 07:54:09;;;;;;;5.85;1.95;;;12.90;1.00;;;;;;6121905;23;20166;-80
2023/05/18 07:56:35;;;;;;;5.55;1.83;;;12.70;1.00;;;;;;6122199;23;20231;-83
2023/05/18 07:59:01;;;;;;;5.28;1.67;;;12.60;1.00;;;;;;6124037;23;20189;-80
2023/05/18 08:01:28;;;;;;;4.72;1.83;;;12.30;1.00;;;;;;6151329;23;20168;-78
2023/05/18 08:03:55;;;;;;;5.50;2.50;;;12.40;1.00;;;;;;6125513;23;20206;-79
2023/05/18 08:06:21;;;;;;;5.13;2.25;;;12.30;1.00;;;;;;6123245;23;20172;-77
2023/05/18 08:08:47;;;;;;;7.88;1.70;;;12.50;1.00;;;;;;6150343;23;20250;-82
2023/05/18 08:11:12;;;;;;;7.28;2.35;;;12.50;1.00;;;;;;6151101;23;20152;-83
2023/05/18 08:13:38;;;;;;;5.63;1.70;;;12.50;1.00;;;;;;6152001;23;20554;-81
2023/05/18 08:16:04;;;;;;;6.03;2.00;;;12.50;1.00;;;;;;6125642;23;20206;-82
2023/05/18 08:18:30;;;;;;;5.25;2.05;;;12.50;1.00;;;;;;6125605;23;20209;-83
2023/05/18 08:20:55;;;;;;;6.55;1.92;;;12.40;1.00;;;;;;6125529;23;20163;-79
2023/05/18 08:23:23;;;;;;;5.90;2.15;;;12.50;1.00;;;;;;6124406;23;20183;-79
2023/05/18 08:25:49;;;;;;;5.35;1.63;;;12.60;1.00;;;;;;6125850;23;20317;-79
2023/05/18 08:28:15;;;;;;;4.65;1.80;;;12.30;1.00;;;;;;6152222;23;20668;-79
2023/05/18 08:30:41;;;;;;;6.55;1.88;;;12.40;1.00;;;;;;6125600;23;20171;-82
2023/05/18 08:33:06;;;;;;;7.15;1.95;;;12.60;1.00;;;;;;6126091;23;20164;-79
2023/05/18 08:35:32;;;;;;;5.03;1.88;;;12.80;1.00;;;;;;6152159;23;20210;-79
2023/05/18 08:37:58;;;;;;;7.60;2.13;;;12.90;1.00;;;;;;6126474;23;20525;-80
2023/05/18 08:40:41;;;;;;;5.40;1.70;;;13.10;1.00;;;;;;6151784;23;20257;-85
2023/05/18 08:43:17;;;;;;;7.70;2.08;;;13.00;1.00;;;;;;6125636;23;20179;-79
2023/05/18 08:45:57;;;;;;;6.32;1.73;;;13.00;1.00;;;;;;6125454;23;20829;-83
2023/05/18 08:48:25;;;;;;;4.45;1.40;;;12.90;1.00;;;;;;6151946;23;20515;-83
2023/05/18 08:50:53;;;;;;;4.07;1.55;;;12.50;1.00;;;;;;6151328;23;20206;-81
2023/05/18 08:53:23;;;;;;;7.00;1.98;;;12.70;1.00;;;;;;6150829;23;20190;-81
2023/05/18 08:55:51;;;;;;;4.25;2.13;;;13.00;1.00;;;;;;6152723;23;20184;-79
2023/05/18 08:58:19;;;;;;;9.15;2.10;;;13.10;1.00;;;;;;6126112;23;20170;-80
2023/05/18 09:00:45;;;;;;;5.97;1.80;;;13.10;1.00;;;;;;6153149;23;20668;-82
2023/05/18 09:03:13;;;;;;;5.95;1.90;;;13.20;1.00;;;;;;6126802;23;20190;-82
2023/05/18 09:05:40;;;;;;;4.93;1.60;;;13.20;1.00;;;;;;6126557;23;20179;-81
2023/05/18 09:08:06;;;;;;;5.80;1.83;;;13.30;1.00;;;;;;6126650;23;20162;-79
2023/05/18 09:10:32;;;;;;;3.70;1.70;;;13.30;1.00;;;;;;6126980;23;20163;-84
2023/05/18 09:12:59;;;;;;;5.72;1.65;;;13.20;1.00;;;;;;6152646;23;20234;-81
2023/05/18 09:15:25;;;;;;;5.65;1.50;;;13.00;1.00;;;;;;6126663;23;20506;-79
2023/05/18 09:17:51;;;;;;;6.32;1.67;;;13.00;1.00;;;;;;6126866;23;20160;-79
2023/05/18 09:20:18;;;;;;;5.72;1.73;;;13.00;1.00;;;;;;6152848;23;20230;-79
2023/05/18 09:22:44;;;;;;;4.88;1.60;;;12.90;1.00;;;;;;6126243;23;20189;-80
2023/05/18 09:25:09;;;;;;;5.70;1.75;;;13.10;1.00;;;;;;6126599;23;20163;-79
2023/05/18 09:27:36;;;;;;;4.65;1.58;;;13.30;1.00;;;;;;6126417;23;20171;-79
2023/05/18 09:30:01;;;;;;;4.88;1.50;;;13.40;1.00;;;;;;6153329;23;20203;-82
2023/05/18 09:32:28;;;;;;;7.57;2.10;;;13.40;1.00;;;;;;6152208;23;20156;-80
2023/05/18 09:34:54;;;;;;;6.22;1.67;;;13.40;1.00;;;;;;6152919;23;20685;-83
2023/05/18 09:37:20;;;;;;;7.78;1.80;;;13.50;1.00;;;;;;6152878;23;20203;-80
2023/05/18 09:40:05;;;;;;;2.65;1.30;;;13.80;1.00;;;;;;6153281;23;20183;-80
2023/05/18 09:42:38;;;;;;;7.63;2.17;;;14.10;1.00;;;;;;6126216;23;20183;-79
2023/05/18 09:45:17;;;;;;;6.65;1.98;;;14.10;1.00;;;;;;6127046;23;20164;-81
2023/05/18 09:47:42;;;;;;;3.10;1.42;;;14.20;1.00;;;;;;6126368;23;20535;-85
2023/05/18 09:50:08;;;;;;;7.53;1.88;;;14.30;1.00;;;;;;6152301;23;20230;-81
2023/05/18 09:52:44;;;;;;;4.80;1.45;;;14.80;1.00;;;;;;6125650;23;20163;-79
2023/05/18 09:55:11;;;;;;;5.30;1.48;;;14.70;1.00;;;;;;6152860;23;20658;-80
2023/05/18 09:57:48;;;;;;;4.80;1.55;;;15.30;1.00;;;;;;6126422;23;20594;-78
2023/05/18 10:00:15;;;;;;;3.65;1.80;;;14.70;1.00;;;;;;6153270;23;20171;-83
2023/05/18 10:02:44;;;;;;;6.05;1.80;;;14.70;1.00;;;;;;6126611;23;20241;-80
2023/05/18 10:05:28;;;;;;;4.63;1.70;;;14.80;1.00;;;;;;6153093;23;20612;-81
2023/05/18 10:07:54;;;;;;;4.65;1.50;;;14.80;1.00;;;;;;6153605;23;20136;-80
2023/05/18 10:10:22;;;;;;;6.03;1.88;;;14.90;1.00;;;;;;6126432;23;20695;-81
2023/05/18 10:12:52;;;;;;;5.95;1.98;;;14.60;1.00;;;;;;6126505;23;20174;-81
2023/05/18 10:15:20;;;;;;;5.28;1.50;;;15.60;1.00;;;;;;6153151;23;20191;-81
2023/05/18 10:17:47;;;;;;;4.20;1.50;;;14.60;1.00;;;;;;6126370;23;20532;-84
2023/05/18 10:20:25;;;;;;;8.05;1.92;;;14.70;1.00;;;;;;6126704;23;20534;-78
2023/05/18 10:22:54;;;;;;;6.75;1.88;;;14.50;1.00;;;;;;6127089;23;20503;-79
2023/05/18 10:25:21;;;;;;;5.80;1.88;;;14.40;1.00;;;;;;6152600;23;20160;-79
2023/05/18 10:27:49;;;;;;;5.20;1.55;;;14.70;1.00;;;;;;6127083;23;20500;-81
2023/05/18 10:30:16;;;;;;;5.75;2.20;;;14.40;1.00;;;;;;6126064;23;20254;-82
2023/05/18 10:32:42;;;;;;;4.20;1.75;;;14.60;1.00;;;;;;6152897;23;20211;-82
2023/05/18 10:35:09;;;;;;;5.55;1.70;;;14.70;1.00;;;;;;6126155;23;20195;-79
2023/05/18 10:37:38;;;;;;;6.10;1.60;;;14.90;1.00;;;;;;6152738;23;20172;-80
2023/05/18 10:40:06;;;;;;;5.80;1.42;;;15.50;1.00;;;;;;6152453;23;20274;-81
2023/05/18 10:42:32;;;;;;;7.18;2.10;;;14.50;1.00;;;;;;6152625;23;20500;-82
2023/05/18 10:45:00;;;;;;;6.55;1.67;;;14.40;1.00;;;;;;6153324;23;20546;-81
2023/05/18 10:47:27;;;;;;;5.53;2.00;;;14.60;1.00;;;;;;6125640;23;20160;-80
2023/05/18 10:49:53;;;;;;;4.68;1.40;;;14.80;1.00;;;;;;6151664;23;20493;-81
2023/05/18 10:52:20;;;;;;;5.68;1.63;;;15.00;1.00;;;;;;6150916;23;20517;-80
2023/05/18 10:54:46;;;;;;;4.28;1.65;;;15.60;1.00;;;;;;6123993;23;20489;-83
2023/05/18 10:57:18;;;;;;;6.25;1.67;;;15.50;1.00;;;;;;6124035;23;20163;-80
2023/05/18 10:59:46;;;;;;;5.70;1.70;;;15.70;1.00;;;;;;6150853;23;20172;-82
2023/05/18 11:02:15;;;;;;;4.20;1.83;;;15.70;1.00;;;;;;6124650;23;20187;-78
2023/05/18 11:04:41;;;;;;;3.85;1.50;;;15.00;1.00;;;;;;6126218;23;20164;-82
2023/05/18 11:07:11;;;;;;;5.78;1.50;;;15.00;1.00;;;;;;6150202;23;20206;-83
2023/05/18 11:09:41;;;;;;;5.90;1.92;;;15.00;1.00;;;;;;6124549;23;20183;-80
2023/05/18 11:12:16;;;;;;;4.93;1.70;;;15.40;1.00;;;;;;6124557;23;20152;-80
2023/05/18 11:14:50;;;;;;;5.65;1.80;;;14.80;1.00;;;;;;6149223;23;20163;-84
2023/05/18 11:17:20;;;;;;;5.32;1.83;;;14.70;1.00;;;;;;6146222;23;20380;-82
2023/05/18 11:20:07;;;;;;;4.55;1.63;;;14.90;1.00;;;;;;6119461;23;20534;-81
2023/05/18 11:22:56;;;;;;;5.68;1.90;;;14.70;1.00;;;;;;6119713;23;20191;-82
2023/05/18 11:25:24;;;;;;;6.63;2.10;;;14.90;1.00;;;;;;6145305;23;20219;-82
2023/05/18 11:27:55;;;;;;;6.22;1.70;;;15.00;1.00;;;;;;6118564;23;20171;-81
2023/05/18 11:30:44;;;;;;;6.50;1.58;;;15.10;1.00;;;;;;6144952;23;20194;-82
2023/05/18 11:33:16;;;;;;;6.25;1.50;;;15.50;1.00;;;;;;6118967;23;20164;-84
2023/05/18 11:36:13;;;;;;;4.72;1.38;;;15.50;1.00;;;;;;6145210;23;20650;-82
2023/05/18 11:38:53;;;;;;;6.25;1.70;;;15.60;1.00;;;;;;6118511;23;20202;-83
2023/05/18 11:41:46;;;;;;;5.75;1.58;;;15.80;1.00;;;;;;6119739;23;20310;-82
2023/05/18 11:44:13;;;;;;;5.70;1.70;;;15.60;1.00;;;;;;6119307;23;20655;-83
2023/05/18 11:46:59;;;;;;;4.32;1.58;;;15.40;1.00;;;;;;6144632;23;20545;-81
2023/05/18 11:49:26;;;;;;;6.13;1.83;;;15.50;1.00;;;;;;6119629;23;20523;-81
2023/05/18 11:52:20;;;;;;;5.53;1.65;;;15.90;1.00;;;;;;6119406;23;20164;-82
2023/05/18 11:54:56;;;;;;;4.75;1.70;;;15.90;1.00;;;;;;6119142;23;20514;-81
2023/05/18 11:57:37;;;;;;;4.30;1.50;;;15.80;1.00;;;;;;6120219;23;20152;-81
2023/05/18 12:00:11;;;;;;;6.43;1.60;;;15.80;1.00;;;;;;6145820;23;20171;-81
2023/05/18 12:02:37;;;;;;;5.07;1.73;;;15.20;1.00;;;;;;6146385;23;20174;-81
2023/05/18 12:05:07;;;;;;;5.55;1.70;;;14.90;1.00;;;;;;6119175;23;20163;-83
2023/05/18 12:07:34;;;;;;;6.68;1.90;;;15.60;1.00;;;;;;6118757;23;20156;-83
2023/05/18 12:10:04;;;;;;;5.22;1.85;;;15.80;1.00;;;;;;6145155;23;20179;-82
2023/05/18 12:12:30;;;;;;;6.15;1.58;;;15.60;1.00;;;;;;6146099;23;20175;-82
2023/05/18 12:14:58;;;;;;;5.88;1.70;;;15.40;1.00;;;;;;6145457;23;20183;-82
2023/05/18 12:17:37;;;;;;;3.58;1.27;;;15.10;1.00;;;;;;6146327;23;20160;-83
2023/05/18 12:20:03;;;;;;;4.00;1.80;;;15.20;1.00;;;;;;6145756;23;20175;-82
2023/05/18 12:22:29;;;;;;;5.85;1.60;;;15.40;1.00;;;;;;6145366;23;20239;-81
2023/05/18 12:24:54;;;;;;;5.63;1.70;;;15.40;1.00;;;;;;6119348;23;20167;-81
2023/05/18 12:27:21;;;;;;;4.95;1.63;;;15.20;1.00;;;;;;6145527;23;20163;-81
2023/05/18 12:29:48;;;;;;;3.75;1.33;;;15.70;1.00;;;;;;6145303;23;20239;-84
2023/05/18 12:32:14;;;;;;;5.40;1.85;;;15.20;1.00;;;;;;6119225;23;20171;-84
2023/05/18 12:34:39;;;;;;;5.88;1.70;;;15.30;1.00;;;;;;6118219;23;20168;-82
2023/05/18 12:37:06;;;;;;;4.85;1.50;;;15.30;1.00;;;;;;6145685;23;20207;-82
2023/05/18 12:39:32;;;;;;;4.20;1.30;;;15.50;1.00;;;;;;6119298;23;20187;-82
2023/05/18 12:42:14;;;;;;;4.80;1.40;;;15.80;1.00;;;;;;6144846;23;20607;-82
2023/05/18 12:44:42;;;;;;;4.97;1.60;;;16.10;1.00;;;;;;6119131;23;20160;-84
2023/05/18 12:47:10;;;;;;;5.55;1.65;;;15.90;1.00;;;;;;6119711;23;20163;-81
2023/05/18 12:49:37;;;;;;;5.53;1.95;;;15.90;1.00;;;;;;6145673;23;20491;-82
2023/05/18 12:52:15;;;;;;;7.93;1.80;;;15.70;1.00;;;;;;6118678;23;20164;-82
2023/05/18 12:54:59;;;;;;;6.20;2.08;;;15.60;1.00;;;;;;6120834;23;20190;-84
2023/05/18 12:57:26;;;;;;;6.28;1.52;;;15.70;1.00;;;;;;6147485;23;20206;-82
2023/05/18 12:59:53;;;;;;;4.85;1.80;;;16.00;1.00;;;;;;6121386;23;20322;-84
2023/05/18 13:02:28;;;;;;;3.92;1.50;;;16.20;1.00;;;;;;6120884;23;20191;-81